Hoegh Trigger — LAUK7 — position and weather

sailwx.info

Track history (hours):
 
Tides and Currents Weather Stations Pressure Air Temp Water Temp Dewpoint Dewpoint Depression Visibility Wind Speed Wind Dir Waves Ship Positions

Hoegh Trigger

Last reported at 2017-Sep-19 14:25 UTC. Time now 2017-Sep-26 21:50 UTC.
Position N 26°25' W 079°26'.

Length 199 m; draft 8.3 m.

Type: Cargo ship. MMSI: 258389000.

Date/timePositionNaut miles runAvg speedWind from/ knotsBaromVisibWave heightAir tempDewpointWater temp
2017-Sep-19 14:25N 26°25' W 079°26'818.8
2017-Sep-19 14:00N 26°17' W 079°26'918.7
2017-Sep-19 13:30N 26°08' W 079°27'1018.6
2017-Sep-19 12:59N 25°58' W 079°28'918.8
2017-Sep-19 12:30N 25°49' W 079°29'919.0
2017-Sep-19 12:00N 25°40' W 079°30'1019.2
2017-Sep-19 11:30N 25°30' W 079°32'  
2017-Sep-16 23:19N 19°26' W 095°48'516.7
2017-Sep-16 23:00N 19°23' W 095°53'815.8
2017-Sep-16 22:31N 19°17' W 095°57'814.9
2017-Sep-16 22:00N 19°11' W 096°03'4 9.0
2017-Sep-16 21:30N 19°12' W 096°08'1 1.5
2017-Sep-16 21:00N 19°13' W 096°08'0 0.0
2017-Sep-16 20:30N 19°13' W 096°08'0 0.0
2017-Sep-16 20:00N 19°13' W 096°08'0 0.0
2017-Sep-16 19:30N 19°13' W 096°08'0 0.0
2017-Sep-16 19:00N 19°13' W 096°08'0 0.0
2017-Sep-16 18:30N 19°13' W 096°08'0 0.0
2017-Sep-16 18:00N 19°13' W 096°08'0 0.0
2017-Sep-16 17:28N 19°13' W 096°08'0 0.0
2017-Sep-16 16:58N 19°13' W 096°08'0 0.0
2017-Sep-16 16:28N 19°13' W 096°08'0 0.0
2017-Sep-16 15:58N 19°13' W 096°08'0 0.0
2017-Sep-16 15:28N 19°13' W 096°08'0 0.0
2017-Sep-16 14:58N 19°13' W 096°08'0 0.0
2017-Sep-16 14:28N 19°13' W 096°08'0 0.0
2017-Sep-16 13:58N 19°13' W 096°08'0 0.0
2017-Sep-16 13:28N 19°13' W 096°08'0 0.0
2017-Sep-16 12:58N 19°13' W 096°08'0 0.0
2017-Sep-16 12:28N 19°13' W 096°08'0 0.0
2017-Sep-16 11:58N 19°13' W 096°08'0 0.0
2017-Sep-16 11:28N 19°13' W 096°08'0 0.0
2017-Sep-16 10:58N 19°13' W 096°08'0 0.0
2017-Sep-16 10:28N 19°13' W 096°08'0 0.0
2017-Sep-16 09:58N 19°13' W 096°08'0 0.0
2017-Sep-16 09:28N 19°13' W 096°08'0 0.0
2017-Sep-16 08:58N 19°13' W 096°08'0 0.0
2017-Sep-16 08:28N 19°13' W 096°08'0 0.0
2017-Sep-16 07:58N 19°13' W 096°08'0 0.0
2017-Sep-16 07:25N 19°13' W 096°08'0 0.0
2017-Sep-16 06:55N 19°13' W 096°08'0 0.0
2017-Sep-16 06:28N 19°13' W 096°08'0 0.0
2017-Sep-16 05:58N 19°13' W 096°08'0 0.0
2017-Sep-16 05:28N 19°13' W 096°08'0 0.0
2017-Sep-16 04:58N 19°13' W 096°08'0 0.0
2017-Sep-16 04:28N 19°13' W 096°08'0 0.0
2017-Sep-16 03:55N 19°13' W 096°08'0 0.0
2017-Sep-16 03:25N 19°13' W 096°08'0 0.0
2017-Sep-16 02:58N 19°13' W 096°08'0 0.0
2017-Sep-16 02:28N 19°13' W 096°08'0 0.0
2017-Sep-16 01:58N 19°13' W 096°08'0 0.0
2017-Sep-16 01:28N 19°13' W 096°08'0 0.0
2017-Sep-16 00:58N 19°13' W 096°08'0 0.0
2017-Sep-16 00:28N 19°13' W 096°08'0 0.0
2017-Sep-15 23:55N 19°13' W 096°08'0 0.0
2017-Sep-15 23:28N 19°13' W 096°08'0 0.0
2017-Sep-15 22:58N 19°13' W 096°08'0 0.0
2017-Sep-15 22:28N 19°13' W 096°08'0 0.0
2017-Sep-15 21:58N 19°13' W 096°08'0 0.0
2017-Sep-15 21:28N 19°13' W 096°08'0 0.0
2017-Sep-15 20:58N 19°13' W 096°08'0 0.0
2017-Sep-15 20:28N 19°13' W 096°08'0 0.0
2017-Sep-15 19:55N 19°13' W 096°08'0 0.0
2017-Sep-15 19:30N 19°13' W 096°08'0 0.0
2017-Sep-15 18:58N 19°13' W 096°08'0 1.1
2017-Sep-15 18:31N 19°12' W 096°08'4 7.1
2017-Sep-15 18:00N 19°12' W 096°04'3 5.5
2017-Sep-15 17:30N 19°11' W 096°02'1 2.6
2017-Sep-15 17:00N 19°09' W 096°01'2 3.7
2017-Sep-15 16:29N 19°08' W 096°00'0 0.1
2017-Sep-15 15:59N 19°08' W 096°00'0 0.0
2017-Sep-15 15:29N 19°08' W 096°00'0 0.0
2017-Sep-15 14:59N 19°08' W 096°00'0 0.0
2017-Sep-15 14:29N 19°08' W 096°00'0 0.0
2017-Sep-15 13:59N 19°08' W 096°00'0 0.0
2017-Sep-15 13:29N 19°08' W 096°00'0 0.0
2017-Sep-15 12:59N 19°08' W 096°00'0 0.0
2017-Sep-15 12:29N 19°08' W 096°00'0 0.0
2017-Sep-15 11:59N 19°08' W 096°00'0 0.0
2017-Sep-15 11:29N 19°08' W 096°00'0 0.0
2017-Sep-15 10:59N 19°08' W 096°00'0 0.0
2017-Sep-15 10:29N 19°08' W 096°00'0 0.0
2017-Sep-15 09:59N 19°08' W 096°00'0 0.0
2017-Sep-15 09:29N 19°08' W 096°00'0 0.0
2017-Sep-15 08:59N 19°08' W 096°00'0 0.0
2017-Sep-15 08:29N 19°08' W 096°00'0 0.0
2017-Sep-15 07:59N 19°08' W 096°00'0 0.0
2017-Sep-15 07:29N 19°08' W 096°00'0 0.1
2017-Sep-15 06:59N 19°08' W 096°00'0 0.1
2017-Sep-15 06:29N 19°08' W 096°00'0 0.0
2017-Sep-15 05:59N 19°08' W 096°00'0 0.0
2017-Sep-15 05:29N 19°08' W 096°00'0 0.0
2017-Sep-15 04:59N 19°08' W 096°00'0 0.1
2017-Sep-15 04:29N 19°08' W 096°00'0 0.1
2017-Sep-15 03:59N 19°08' W 096°00'0 0.1
2017-Sep-15 03:23N 19°08' W 096°00'0 0.1
2017-Sep-15 02:58N 19°08' W 096°00'0 0.0
2017-Sep-15 02:28N 19°08' W 096°00'0 0.0
2017-Sep-15 01:58N 19°08' W 096°00'0 0.2
2017-Sep-15 01:28N 19°08' W 096°00'0 0.0
2017-Sep-15 00:52N 19°08' W 096°00'0 0.0
2017-Sep-15 00:28N 19°08' W 096°00'0 0.0
2017-Sep-14 23:58N 19°08' W 096°00'0 0.0
2017-Sep-14 23:28N 19°08' W 096°00'0 0.0
2017-Sep-14 22:58N 19°08' W 096°00'0 0.0
2017-Sep-14 22:28N 19°08' W 096°00'0 0.0
2017-Sep-14 21:58N 19°08' W 096°00'0 0.0
2017-Sep-14 21:28N 19°08' W 096°00'0 0.0
2017-Sep-14 20:58N 19°08' W 096°00'0 0.0
2017-Sep-14 20:28N 19°08' W 096°00'0 0.0
2017-Sep-14 19:58N 19°08' W 096°00'0 0.0
2017-Sep-14 19:28N 19°08' W 096°00'0 0.0
2017-Sep-14 18:58N 19°08' W 096°00'0 0.0
2017-Sep-14 18:28N 19°08' W 096°00'0 0.0
2017-Sep-14 17:58N 19°08' W 096°00'0 0.0
2017-Sep-14 17:22N 19°08' W 096°00'0 0.0
2017-Sep-14 16:58N 19°08' W 096°00'0 0.0
2017-Sep-14 16:28N 19°08' W 096°00'0 0.1
2017-Sep-14 15:58N 19°08' W 096°00'0 0.0
2017-Sep-14 15:28N 19°08' W 096°00'0 0.0
2017-Sep-14 14:58N 19°08' W 096°00'0 0.0
2017-Sep-14 14:22N 19°08' W 096°00'0 0.0
2017-Sep-14 13:58N 19°08' W 096°00'0 0.1
2017-Sep-14 13:28N 19°08' W 096°00'0 0.1
2017-Sep-14 12:58N 19°08' W 096°00'0 0.0
2017-Sep-14 12:28N 19°08' W 096°00'0 0.0
2017-Sep-14 11:58N 19°08' W 096°00'0 0.0
2017-Sep-14 11:28N 19°08' W 096°00'0 0.0
2017-Sep-14 10:52N 19°08' W 096°00'0 0.0
2017-Sep-14 10:28N 19°08' W 096°00'0 0.0
2017-Sep-14 09:58N 19°08' W 096°00'0 0.0
2017-Sep-14 09:28N 19°08' W 096°00'0 0.0
2017-Sep-14 08:52N 19°08' W 096°00'0 0.0
2017-Sep-14 08:28N 19°08' W 096°00'0 0.0
2017-Sep-14 07:58N 19°08' W 096°00'0 0.0
2017-Sep-14 07:28N 19°08' W 096°00'0 0.0
2017-Sep-14 06:58N 19°08' W 096°00'0 0.0
2017-Sep-14 06:28N 19°08' W 096°00'0 0.0
2017-Sep-14 05:58N 19°08' W 096°00'0 0.0
2017-Sep-14 05:28N 19°08' W 096°00'0 0.0
2017-Sep-14 04:58N 19°08' W 096°00'0 0.0
2017-Sep-14 04:28N 19°08' W 096°00'0 0.0
2017-Sep-14 03:58N 19°08' W 096°00'0 0.0
2017-Sep-14 03:22N 19°08' W 096°00'0 0.0
2017-Sep-14 02:58N 19°08' W 096°00'0 0.0
2017-Sep-14 02:28N 19°08' W 096°00'0 0.0
2017-Sep-14 01:58N 19°08' W 096°00'0 0.0
2017-Sep-14 01:28N 19°08' W 096°00'0 0.0
2017-Sep-14 00:58N 19°08' W 096°00'0 0.0
2017-Sep-14 00:28N 19°08' W 096°00'0 0.0
2017-Sep-13 23:58N 19°08' W 096°00'0 0.0
2017-Sep-13 23:28N 19°08' W 096°00'0 0.0
2017-Sep-13 22:58N 19°08' W 096°00'0 0.0
2017-Sep-13 22:28N 19°08' W 096°00'0 0.0
2017-Sep-13 21:58N 19°08' W 096°00'0 0.0
2017-Sep-13 21:28N 19°08' W 096°00'0 0.0
2017-Sep-13 20:58N 19°08' W 096°00'0 0.0
2017-Sep-13 20:28N 19°08' W 096°00'0 0.0
2017-Sep-13 19:57N 19°08' W 096°00'0 0.0
2017-Sep-13 19:27N 19°08' W 096°00'0 0.0
2017-Sep-13 18:51N 19°08' W 096°00'0 0.0
2017-Sep-13 18:27N 19°08' W 096°00'0 0.0
2017-Sep-13 17:57N 19°08' W 096°00'0 0.0
2017-Sep-13 17:27N 19°08' W 096°00'0 0.0
2017-Sep-13 16:57N 19°08' W 096°00'0 0.0
2017-Sep-13 16:30N 19°08' W 096°00'1 2.5
2017-Sep-13 16:00N 19°08' W 095°59'5 9.2
2017-Sep-13 15:30N 19°12' W 095°56'4 8.8
2017-Sep-13 15:00N 19°14' W 095°52'510.9
2017-Sep-13 14:30N 19°14' W 095°47'611.6
2017-Sep-13 14:00N 19°14' W 095°41'18 1.3
2017-Sep-13 00:21N 19°26' W 095°26'2 1.7
2017-Sep-12 23:16N 19°24' W 095°26'1 2.2
2017-Sep-12 22:42N 19°25' W 095°26'1 2.3
2017-Sep-12 22:18N 19°26' W 095°25'0 0.1
2017-Sep-12 16:37N 19°26' W 095°25'1 2.1
2017-Sep-12 16:21N 19°27' W 095°25'1 2.0
2017-Sep-12 16:00N 19°27' W 095°26'8 1.9
2017-Sep-12 11:32N 19°21' W 095°31'0 3.8
2017-Sep-12 11:25N 19°20' W 095°31'2 3.8
2017-Sep-12 11:00N 19°20' W 095°33'1 0.1
2017-Sep-12 06:38N 19°20' W 095°33'1 0.5
2017-Sep-12 04:37N 19°21' W 095°32'2 7.6
2017-Sep-12 04:21N 19°20' W 095°33'3 7.6
2017-Sep-12 03:59N 19°18' W 095°36'2 3.7
2017-Sep-12 03:19N 19°17' W 095°38'  
Track history (hours):
 
Tides and Currents Weather Stations Pressure Air Temp Water Temp Dewpoint Dewpoint Depression Visibility Wind Speed Wind Dir Waves Ship Positions

Hoegh Trigger

Last reported at 2017-Sep-19 14:25 UTC. Time now 2017-Sep-26 21:50 UTC.
Position N 26°25' W 079°26'.

Length 199 m; draft 8.3 m.

Type: Cargo ship. MMSI: 258389000.

Date/timePositionNaut miles runAvg speedWind from/ knotsBaromVisibWave heightAir tempDewpointWater temp
2017-Sep-19 14:25N 26°25' W 079°26'818.8
2017-Sep-19 14:00N 26°17' W 079°26'918.7
2017-Sep-19 13:30N 26°08' W 079°27'1018.6
2017-Sep-19 12:59N 25°58' W 079°28'918.8
2017-Sep-19 12:30N 25°49' W 079°29'919.0
2017-Sep-19 12:00N 25°40' W 079°30'1019.2
2017-Sep-19 11:30N 25°30' W 079°32'  
2017-Sep-16 23:19N 19°26' W 095°48'516.7
2017-Sep-16 23:00N 19°23' W 095°53'815.8
2017-Sep-16 22:31N 19°17' W 095°57'814.9
2017-Sep-16 22:00N 19°11' W 096°03'4 9.0
2017-Sep-16 21:30N 19°12' W 096°08'1 1.5
2017-Sep-16 21:00N 19°13' W 096°08'0 0.0
2017-Sep-16 20:30N 19°13' W 096°08'0 0.0
2017-Sep-16 20:00N 19°13' W 096°08'0 0.0
2017-Sep-16 19:30N 19°13' W 096°08'0 0.0
2017-Sep-16 19:00N 19°13' W 096°08'0 0.0
2017-Sep-16 18:30N 19°13' W 096°08'0 0.0
2017-Sep-16 18:00N 19°13' W 096°08'0 0.0
2017-Sep-16 17:28N 19°13' W 096°08'0 0.0
2017-Sep-16 16:58N 19°13' W 096°08'0 0.0
2017-Sep-16 16:28N 19°13' W 096°08'0 0.0
2017-Sep-16 15:58N 19°13' W 096°08'0 0.0
2017-Sep-16 15:28N 19°13' W 096°08'0 0.0
2017-Sep-16 14:58N 19°13' W 096°08'0 0.0
2017-Sep-16 14:28N 19°13' W 096°08'0 0.0
2017-Sep-16 13:58N 19°13' W 096°08'0 0.0
2017-Sep-16 13:28N 19°13' W 096°08'0 0.0
2017-Sep-16 12:58N 19°13' W 096°08'0 0.0
2017-Sep-16 12:28N 19°13' W 096°08'0 0.0
2017-Sep-16 11:58N 19°13' W 096°08'0 0.0
2017-Sep-16 11:28N 19°13' W 096°08'0 0.0
2017-Sep-16 10:58N 19°13' W 096°08'0 0.0
2017-Sep-16 10:28N 19°13' W 096°08'0 0.0
2017-Sep-16 09:58N 19°13' W 096°08'0 0.0
2017-Sep-16 09:28N 19°13' W 096°08'0 0.0
2017-Sep-16 08:58N 19°13' W 096°08'0 0.0
2017-Sep-16 08:28N 19°13' W 096°08'0 0.0
2017-Sep-16 07:58N 19°13' W 096°08'0 0.0
2017-Sep-16 07:25N 19°13' W 096°08'0 0.0
2017-Sep-16 06:55N 19°13' W 096°08'0 0.0
2017-Sep-16 06:28N 19°13' W 096°08'0 0.0
2017-Sep-16 05:58N 19°13' W 096°08'0 0.0
2017-Sep-16 05:28N 19°13' W 096°08'0 0.0
2017-Sep-16 04:58N 19°13' W 096°08'0 0.0
2017-Sep-16 04:28N 19°13' W 096°08'0 0.0
2017-Sep-16 03:55N 19°13' W 096°08'0 0.0
2017-Sep-16 03:25N 19°13' W 096°08'0 0.0
2017-Sep-16 02:58N 19°13' W 096°08'0 0.0
2017-Sep-16 02:28N 19°13' W 096°08'0 0.0
2017-Sep-16 01:58N 19°13' W 096°08'0 0.0
2017-Sep-16 01:28N 19°13' W 096°08'0 0.0
2017-Sep-16 00:58N 19°13' W 096°08'0 0.0
2017-Sep-16 00:28N 19°13' W 096°08'0 0.0
2017-Sep-15 23:55N 19°13' W 096°08'0 0.0
2017-Sep-15 23:28N 19°13' W 096°08'0 0.0
2017-Sep-15 22:58N 19°13' W 096°08'0 0.0
2017-Sep-15 22:28N 19°13' W 096°08'0 0.0
2017-Sep-15 21:58N 19°13' W 096°08'0 0.0
2017-Sep-15 21:28N 19°13' W 096°08'0 0.0
2017-Sep-15 20:58N 19°13' W 096°08'0 0.0
2017-Sep-15 20:28N 19°13' W 096°08'0 0.0
2017-Sep-15 19:55N 19°13' W 096°08'0 0.0
2017-Sep-15 19:30N 19°13' W 096°08'0 0.0
2017-Sep-15 18:58N 19°13' W 096°08'0 1.1
2017-Sep-15 18:31N 19°12' W 096°08'4 7.1
2017-Sep-15 18:00N 19°12' W 096°04'3 5.5
2017-Sep-15 17:30N 19°11' W 096°02'1 2.6
2017-Sep-15 17:00N 19°09' W 096°01'2 3.7
2017-Sep-15 16:29N 19°08' W 096°00'0 0.1
2017-Sep-15 15:59N 19°08' W 096°00'0 0.0
2017-Sep-15 15:29N 19°08' W 096°00'0 0.0
2017-Sep-15 14:59N 19°08' W 096°00'0 0.0
2017-Sep-15 14:29N 19°08' W 096°00'0 0.0
2017-Sep-15 13:59N 19°08' W 096°00'0 0.0
2017-Sep-15 13:29N 19°08' W 096°00'0 0.0
2017-Sep-15 12:59N 19°08' W 096°00'0 0.0
2017-Sep-15 12:29N 19°08' W 096°00'0 0.0
2017-Sep-15 11:59N 19°08' W 096°00'0 0.0
2017-Sep-15 11:29N 19°08' W 096°00'0 0.0
2017-Sep-15 10:59N 19°08' W 096°00'0 0.0
2017-Sep-15 10:29N 19°08' W 096°00'0 0.0
2017-Sep-15 09:59N 19°08' W 096°00'0 0.0
2017-Sep-15 09:29N 19°08' W 096°00'0 0.0
2017-Sep-15 08:59N 19°08' W 096°00'0 0.0
2017-Sep-15 08:29N 19°08' W 096°00'0 0.0
2017-Sep-15 07:59N 19°08' W 096°00'0 0.0
2017-Sep-15 07:29N 19°08' W 096°00'0 0.1
2017-Sep-15 06:59N 19°08' W 096°00'0 0.1
2017-Sep-15 06:29N 19°08' W 096°00'0 0.0
2017-Sep-15 05:59N 19°08' W 096°00'0 0.0
2017-Sep-15 05:29N 19°08' W 096°00'0 0.0
2017-Sep-15 04:59N 19°08' W 096°00'0 0.1
2017-Sep-15 04:29N 19°08' W 096°00'0 0.1
2017-Sep-15 03:59N 19°08' W 096°00'0 0.1
2017-Sep-15 03:23N 19°08' W 096°00'0 0.1
2017-Sep-15 02:58N 19°08' W 096°00'0 0.0
2017-Sep-15 02:28N 19°08' W 096°00'0 0.0
2017-Sep-15 01:58N 19°08' W 096°00'0 0.2
2017-Sep-15 01:28N 19°08' W 096°00'0 0.0
2017-Sep-15 00:52N 19°08' W 096°00'0 0.0
2017-Sep-15 00:28N 19°08' W 096°00'0 0.0
2017-Sep-14 23:58N 19°08' W 096°00'0 0.0
2017-Sep-14 23:28N 19°08' W 096°00'0 0.0
2017-Sep-14 22:58N 19°08' W 096°00'0 0.0
2017-Sep-14 22:28N 19°08' W 096°00'0 0.0
2017-Sep-14 21:58N 19°08' W 096°00'0 0.0
2017-Sep-14 21:28N 19°08' W 096°00'0 0.0
2017-Sep-14 20:58N 19°08' W 096°00'0 0.0
2017-Sep-14 20:28N 19°08' W 096°00'0 0.0
2017-Sep-14 19:58N 19°08' W 096°00'0 0.0
2017-Sep-14 19:28N 19°08' W 096°00'0 0.0
2017-Sep-14 18:58N 19°08' W 096°00'0 0.0
2017-Sep-14 18:28N 19°08' W 096°00'0 0.0
2017-Sep-14 17:58N 19°08' W 096°00'0 0.0
2017-Sep-14 17:22N 19°08' W 096°00'0 0.0
2017-Sep-14 16:58N 19°08' W 096°00'0 0.0
2017-Sep-14 16:28N 19°08' W 096°00'0 0.1
2017-Sep-14 15:58N 19°08' W 096°00'0 0.0
2017-Sep-14 15:28N 19°08' W 096°00'0 0.0
2017-Sep-14 14:58N 19°08' W 096°00'0 0.0
2017-Sep-14 14:22N 19°08' W 096°00'0 0.0
2017-Sep-14 13:58N 19°08' W 096°00'0 0.1
2017-Sep-14 13:28N 19°08' W 096°00'0 0.1
2017-Sep-14 12:58N 19°08' W 096°00'0 0.0
2017-Sep-14 12:28N 19°08' W 096°00'0 0.0
2017-Sep-14 11:58N 19°08' W 096°00'0 0.0
2017-Sep-14 11:28N 19°08' W 096°00'0 0.0
2017-Sep-14 10:52N 19°08' W 096°00'0 0.0
2017-Sep-14 10:28N 19°08' W 096°00'0 0.0
2017-Sep-14 09:58N 19°08' W 096°00'0 0.0
2017-Sep-14 09:28N 19°08' W 096°00'0 0.0
2017-Sep-14 08:52N 19°08' W 096°00'0 0.0
2017-Sep-14 08:28N 19°08' W 096°00'0 0.0
2017-Sep-14 07:58N 19°08' W 096°00'0 0.0
2017-Sep-14 07:28N 19°08' W 096°00'0 0.0
2017-Sep-14 06:58N 19°08' W 096°00'0 0.0
2017-Sep-14 06:28N 19°08' W 096°00'0 0.0
2017-Sep-14 05:58N 19°08' W 096°00'0 0.0
2017-Sep-14 05:28N 19°08' W 096°00'0 0.0
2017-Sep-14 04:58N 19°08' W 096°00'0 0.0
2017-Sep-14 04:28N 19°08' W 096°00'0 0.0
2017-Sep-14 03:58N 19°08' W 096°00'0 0.0
2017-Sep-14 03:22N 19°08' W 096°00'0 0.0
2017-Sep-14 02:58N 19°08' W 096°00'0 0.0
2017-Sep-14 02:28N 19°08' W 096°00'0 0.0
2017-Sep-14 01:58N 19°08' W 096°00'0 0.0
2017-Sep-14 01:28N 19°08' W 096°00'0 0.0
2017-Sep-14 00:58N 19°08' W 096°00'0 0.0
2017-Sep-14 00:28N 19°08' W 096°00'0 0.0
2017-Sep-13 23:58N 19°08' W 096°00'0 0.0
2017-Sep-13 23:28N 19°08' W 096°00'0 0.0
2017-Sep-13 22:58N 19°08' W 096°00'0 0.0
2017-Sep-13 22:28N 19°08' W 096°00'0 0.0
2017-Sep-13 21:58N 19°08' W 096°00'0 0.0
2017-Sep-13 21:28N 19°08' W 096°00'0 0.0
2017-Sep-13 20:58N 19°08' W 096°00'0 0.0
2017-Sep-13 20:28N 19°08' W 096°00'0 0.0
2017-Sep-13 19:57N 19°08' W 096°00'0 0.0
2017-Sep-13 19:27N 19°08' W 096°00'0 0.0
2017-Sep-13 18:51N 19°08' W 096°00'0 0.0
2017-Sep-13 18:27N 19°08' W 096°00'0 0.0
2017-Sep-13 17:57N 19°08' W 096°00'0 0.0
2017-Sep-13 17:27N 19°08' W 096°00'0 0.0
2017-Sep-13 16:57N 19°08' W 096°00'0 0.0
2017-Sep-13 16:30N 19°08' W 096°00'1 2.5
2017-Sep-13 16:00N 19°08' W 095°59'5 9.2
2017-Sep-13 15:30N 19°12' W 095°56'4 8.8
2017-Sep-13 15:00N 19°14' W 095°52'510.9
2017-Sep-13 14:30N 19°14' W 095°47'611.6
2017-Sep-13 14:00N 19°14' W 095°41'18 1.3
2017-Sep-13 00:21N 19°26' W 095°26'2 1.7
2017-Sep-12 23:16N 19°24' W 095°26'1 2.2
2017-Sep-12 22:42N 19°25' W 095°26'1 2.3
2017-Sep-12 22:18N 19°26' W 095°25'0 0.1
2017-Sep-12 16:37N 19°26' W 095°25'1 2.1
2017-Sep-12 16:21N 19°27' W 095°25'1 2.0
2017-Sep-12 16:00N 19°27' W 095°26'8 1.9
2017-Sep-12 11:32N 19°21' W 095°31'0 3.8
2017-Sep-12 11:25N 19°20' W 095°31'2 3.8
2017-Sep-12 11:00N 19°20' W 095°33'1 0.1
2017-Sep-12 06:38N 19°20' W 095°33'1 0.5
2017-Sep-12 04:37N 19°21' W 095°32'2 7.6
2017-Sep-12 04:21N 19°20' W 095°33'3 7.6
2017-Sep-12 03:59N 19°18' W 095°36'2 3.7
2017-Sep-12 03:19N 19°17' W 095°38'  

Dump ship's entire track history